createdAt,value
2019-03-04T00:01:40.173Z,24.30
2019-03-04T00:04:08.416Z,22.00
2019-03-04T00:06:36.704Z,19.07
2019-03-04T00:09:05.824Z,16.07
2019-03-04T00:11:34.118Z,14.43
2019-03-04T00:14:05.393Z,15.60
2019-03-04T00:16:33.675Z,20.77
2019-03-04T00:19:01.926Z,18.92
2019-03-04T00:21:30.206Z,16.77
2019-03-04T00:23:58.491Z,17.23
2019-03-04T00:26:26.741Z,16.57
2019-03-04T00:28:55.021Z,16.23
2019-03-04T00:31:23.270Z,19.52
2019-03-04T00:33:51.591Z,18.57
2019-03-04T00:36:19.874Z,19.35
2019-03-04T00:38:48.161Z,21.35
2019-03-04T00:41:16.451Z,16.17
2019-03-04T00:43:44.704Z,15.05
2019-03-04T00:46:12.964Z,21.50
2019-03-04T00:48:41.242Z,16.02
2019-03-04T00:51:10.291Z,19.40
2019-03-04T00:53:38.553Z,17.70
2019-03-04T00:56:06.814Z,14.95
2019-03-04T00:58:35.069Z,12.07
2019-03-04T01:01:03.321Z,14.45
2019-03-04T01:03:31.593Z,17.30
2019-03-04T01:05:59.841Z,18.05
2019-03-04T01:08:28.117Z,16.27
2019-03-04T01:10:56.358Z,18.05
2019-03-04T01:13:24.639Z,18.02
2019-03-04T01:15:52.887Z,13.62
2019-03-04T01:18:21.177Z,13.78
2019-03-04T01:20:49.427Z,12.85
2019-03-04T01:23:17.707Z,12.45
2019-03-04T01:25:47.390Z,12.33
2019-03-04T01:28:15.661Z,14.25
2019-03-04T01:30:43.905Z,10.48
2019-03-04T01:33:12.174Z,19.50
2019-03-04T01:35:41.765Z,12.07
2019-03-04T01:38:10.048Z,11.33
2019-03-04T01:40:38.337Z,12.80
2019-03-04T01:43:06.579Z,10.53
2019-03-04T01:45:34.904Z,11.97
2019-03-04T01:48:03.162Z,19.17
2019-03-04T01:50:31.411Z,10.88
2019-03-04T01:52:59.697Z,18.15
2019-03-04T01:55:27.958Z,10.45
2019-03-04T01:57:56.206Z,14.80
2019-03-04T02:00:24.467Z,13.83
2019-03-04T02:02:54.261Z,11.80
2019-03-04T02:05:22.510Z,16.20
2019-03-04T02:07:51.758Z,14.63
2019-03-04T02:10:20.372Z,12.95
2019-03-04T02:12:48.901Z,10.95
2019-03-04T02:15:20.979Z,13.15
2019-03-04T02:17:49.265Z,13.38
2019-03-04T02:20:18.791Z,17.10
2019-03-04T02:22:48.240Z,12.98
2019-03-04T02:25:20.903Z,14.85
2019-03-04T02:27:52.224Z,11.38
2019-03-04T02:30:22.922Z,14.38
2019-03-04T02:32:51.181Z,15.50
2019-03-04T02:35:19.427Z,15.53
2019-03-04T02:37:47.733Z,12.15
2019-03-04T02:40:16.008Z,14.38
2019-03-04T02:42:44.251Z,13.43
2019-03-04T02:45:15.814Z,11.88
2019-03-04T02:47:44.067Z,10.10
2019-03-04T02:50:12.334Z,13.55
2019-03-04T02:52:40.587Z,20.12
2019-03-04T02:55:10.345Z,11.12
2019-03-04T02:57:40.612Z,10.38
2019-03-04T03:00:12.391Z,11.25
2019-03-04T03:02:42.293Z,11.25
2019-03-04T03:05:10.559Z,11.53
2019-03-04T03:07:38.837Z,13.55
2019-03-04T03:10:09.429Z,13.95
2019-03-04T03:12:37.720Z,12.00
2019-03-04T03:15:08.406Z,13.55
2019-03-04T03:17:36.634Z,14.53
2019-03-04T03:20:10.696Z,12.80
2019-03-04T03:22:38.980Z,14.38
2019-03-04T03:25:09.369Z,13.45
2019-03-04T03:27:37.657Z,14.25
2019-03-04T03:30:11.808Z,9.95
2019-03-04T03:32:40.115Z,13.83
2019-03-04T03:35:09.577Z,17.52
2019-03-04T03:37:37.899Z,12.70
2019-03-04T03:40:12.438Z,15.78
2019-03-04T03:42:40.691Z,16.67
2019-03-04T03:45:10.311Z,18.40
2019-03-04T03:47:38.570Z,20.85
2019-03-04T03:50:12.142Z,20.20
2019-03-04T03:52:40.430Z,32.38
2019-03-04T03:55:11.032Z,22.60
2019-03-04T03:57:39.325Z,32.95
2019-03-04T04:00:22.039Z,39.40
2019-03-04T04:02:50.334Z,26.20
2019-03-04T04:05:18.595Z,35.35
2019-03-04T04:07:46.877Z,26.27
2019-03-04T04:10:16.578Z,17.62
2019-03-04T04:12:46.399Z,13.62
2019-03-04T04:15:15.810Z,12.95
2019-03-04T04:17:44.063Z,17.32
2019-03-04T04:20:12.877Z,13.38
2019-03-04T04:22:41.135Z,14.00
2019-03-04T04:25:11.880Z,13.20
2019-03-04T04:27:40.172Z,14.63
2019-03-04T04:30:11.895Z,14.35
2019-03-04T04:32:43.609Z,97.60
2019-03-04T04:35:11.893Z,368.55
2019-03-04T04:37:40.158Z,477.97
2019-03-04T04:40:11.049Z,369.30
2019-03-04T04:42:39.309Z,425.95
2019-03-04T04:45:08.924Z,204.35
2019-03-04T04:47:38.343Z,304.00
2019-03-04T04:50:09.896Z,313.10
2019-03-04T04:52:38.184Z,217.05
2019-03-04T04:55:06.441Z,183.37
2019-03-04T04:57:34.734Z,229.63
2019-03-04T05:00:03.022Z,170.65
2019-03-04T05:02:31.275Z,132.82
2019-03-04T05:05:01.890Z,201.02
2019-03-04T05:07:30.145Z,192.95
2019-03-04T05:09:58.423Z,122.67
2019-03-04T05:12:26.703Z,193.17
2019-03-04T05:14:54.986Z,146.40
2019-03-04T05:17:23.247Z,157.27
2019-03-04T05:19:51.542Z,111.62
2019-03-04T05:22:19.884Z,112.28
2019-03-04T05:24:48.181Z,107.58
2019-03-04T05:27:16.445Z,109.40
2019-03-04T05:29:45.986Z,156.52
2019-03-04T05:32:14.483Z,131.85
2019-03-04T05:34:42.747Z,115.15
2019-03-04T05:37:11.012Z,91.15
2019-03-04T05:39:39.282Z,262.82
2019-03-04T05:42:07.558Z,121.20
2019-03-04T05:44:35.851Z,221.10
2019-03-04T05:47:04.113Z,149.87
2019-03-04T05:49:32.404Z,132.27
2019-03-04T05:52:00.740Z,116.47
2019-03-04T05:54:28.992Z,111.05
2019-03-04T05:56:57.276Z,148.93
2019-03-04T05:59:26.758Z,129.05
2019-03-04T06:01:58.275Z,134.45
2019-03-04T06:04:26.539Z,77.95
2019-03-04T06:06:59.369Z,65.32
2019-03-04T06:09:27.626Z,57.88
2019-03-04T06:11:55.923Z,35.55
2019-03-04T06:14:24.188Z,34.75
2019-03-04T06:16:52.491Z,31.70
2019-03-04T06:19:20.764Z,56.23
2019-03-04T06:21:49.048Z,39.73
2019-03-04T06:24:17.302Z,35.08
2019-03-04T06:26:45.578Z,21.15
2019-03-04T06:29:13.848Z,25.65
2019-03-04T06:31:42.172Z,32.20
2019-03-04T06:34:10.408Z,152.62
2019-03-04T06:36:38.687Z,30.88
2019-03-04T06:39:07.042Z,64.17
2019-03-04T06:41:35.327Z,48.00
2019-03-04T06:44:03.606Z,44.20
2019-03-04T06:46:31.902Z,45.43
2019-03-04T06:49:00.161Z,38.20
2019-03-04T06:51:36.834Z,31.62
2019-03-04T06:54:08.444Z,39.63
2019-03-04T06:56:39.983Z,34.90
2019-03-04T06:59:29.403Z,42.40
2019-03-04T07:02:11.000Z,42.17
2019-03-04T07:04:42.517Z,31.85
2019-03-04T07:07:10.783Z,37.88
2019-03-04T07:09:40.679Z,40.65
2019-03-04T07:12:08.950Z,38.02
2019-03-04T07:14:37.214Z,37.33
2019-03-04T07:17:05.477Z,42.55
2019-03-04T07:19:33.749Z,33.35
2019-03-04T07:22:02.006Z,38.00
2019-03-04T07:24:30.293Z,51.63
2019-03-04T07:26:58.568Z,43.02
2019-03-04T07:29:26.852Z,40.23
2019-03-04T07:31:55.128Z,67.70
2019-03-04T07:34:23.401Z,26.30
2019-03-04T07:36:51.671Z,21.90
2019-03-04T07:39:19.970Z,47.05
2019-03-04T07:41:48.228Z,26.60
2019-03-04T07:44:16.496Z,49.58
2019-03-04T07:46:44.763Z,43.87
2019-03-04T07:49:13.157Z,45.38
2019-03-04T07:51:41.412Z,45.23
2019-03-04T07:54:09.668Z,43.58
2019-03-04T07:56:38.919Z,39.63
2019-03-04T07:59:08.435Z,53.20
2019-03-04T08:01:39.773Z,53.65
2019-03-04T08:04:08.032Z,38.35
2019-03-04T08:06:36.301Z,58.52
2019-03-04T08:09:20.151Z,38.13
2019-03-04T08:12:03.357Z,23.40
2019-03-04T08:14:31.623Z,38.35
2019-03-04T08:16:59.912Z,23.42
2019-03-04T08:19:28.170Z,26.60
2019-03-04T08:21:56.436Z,23.32
2019-03-04T08:24:24.697Z,26.73
2019-03-04T08:26:52.991Z,21.60
2019-03-04T08:29:21.279Z,46.13
2019-03-04T08:31:49.542Z,16.95
2019-03-04T08:34:17.816Z,23.73
2019-03-04T08:36:46.072Z,17.62
2019-03-04T08:39:14.360Z,19.90
2019-03-04T08:41:42.632Z,20.55
2019-03-04T08:44:10.891Z,12.55
2019-03-04T08:46:39.174Z,13.25
2019-03-04T08:49:07.439Z,21.62
2019-03-04T08:51:35.718Z,15.20
2019-03-04T08:54:03.989Z,24.25
2019-03-04T08:56:32.278Z,23.38
2019-03-04T08:59:00.534Z,33.10
2019-03-04T09:01:31.124Z,35.83
2019-03-04T09:03:58.825Z,58.85
2019-03-04T09:06:27.080Z,17.05
2019-03-04T09:08:55.355Z,25.82
2019-03-04T09:11:23.651Z,20.40
2019-03-04T09:13:51.905Z,15.15
2019-03-04T09:16:20.184Z,14.98
2019-03-04T09:18:48.465Z,29.50
2019-03-04T09:21:16.733Z,21.15
2019-03-04T09:23:44.989Z,16.97
2019-03-04T09:26:13.255Z,13.80
2019-03-04T09:28:41.517Z,21.90
2019-03-04T09:31:09.808Z,37.23
2019-03-04T09:33:39.713Z,42.05
2019-03-04T09:36:08.009Z,29.10
2019-03-04T09:38:36.283Z,16.27
2019-03-04T09:41:04.553Z,13.50
2019-03-04T09:43:32.813Z,11.50
2019-03-04T09:46:01.101Z,10.60
2019-03-04T09:48:29.358Z,12.80
2019-03-04T09:50:57.604Z,13.30
2019-03-04T09:53:38.832Z,14.25
2019-03-04T09:56:00.007Z,21.02
2019-03-04T09:58:28.261Z,15.75
2019-03-04T10:01:14.852Z,20.60
2019-03-04T10:03:52.526Z,26.55
2019-03-04T10:06:42.158Z,31.37
2019-03-04T10:09:24.953Z,18.82
2019-03-04T10:12:25.492Z,30.05
2019-03-04T10:15:16.756Z,16.50
2019-03-04T10:17:54.179Z,24.67
2019-03-04T10:20:53.144Z,21.12
2019-03-04T10:23:30.467Z,26.40
2019-03-04T10:26:36.726Z,10.72
2019-03-04T10:29:27.560Z,14.75
2019-03-04T10:32:04.635Z,29.95
2019-03-04T10:34:51.447Z,44.55
2019-03-04T10:37:40.896Z,57.10
2019-03-04T10:40:48.718Z,48.35
2019-03-04T10:43:27.725Z,81.95
2019-03-04T10:46:08.174Z,85.83
2019-03-04T10:48:36.438Z,62.48
2019-03-04T10:51:04.709Z,96.47
2019-03-04T10:53:33.011Z,102.35
2019-03-04T10:56:01.299Z,113.90
2019-03-04T10:58:29.597Z,131.35
2019-03-04T11:00:58.012Z,56.18
2019-03-04T11:03:26.308Z,143.30
2019-03-04T11:05:54.563Z,38.65
2019-03-04T11:08:22.855Z,80.60
2019-03-04T11:10:51.166Z,70.60
2019-03-04T11:13:19.452Z,90.10
2019-03-04T11:15:50.040Z,33.20
2019-03-04T11:18:18.341Z,132.57
2019-03-04T11:20:46.595Z,33.70
2019-03-04T11:23:15.180Z,61.08
2019-03-04T11:25:43.658Z,58.13
2019-03-04T11:28:11.920Z,55.58
2019-03-04T11:30:40.205Z,69.03
2019-03-04T11:33:08.461Z,80.30
2019-03-04T11:35:36.750Z,36.13
2019-03-04T11:38:06.718Z,80.03
2019-03-04T11:40:44.253Z,120.17
2019-03-04T11:43:12.537Z,109.30
2019-03-04T11:45:40.839Z,107.15
2019-03-04T11:48:10.159Z,76.60
2019-03-04T11:50:38.468Z,114.82
2019-03-04T11:53:06.727Z,82.70
2019-03-04T11:55:35.025Z,173.25
2019-03-04T11:58:03.295Z,80.03
2019-03-04T12:00:39.496Z,99.70
2019-03-04T12:03:07.823Z,57.80
2019-03-04T12:05:36.095Z,150.82
2019-03-04T12:08:06.423Z,119.47
2019-03-04T12:10:34.376Z,64.97
2019-03-04T12:13:02.673Z,109.83
2019-03-04T12:15:30.928Z,29.32
2019-03-04T12:17:59.196Z,74.25
2019-03-04T12:20:27.484Z,35.73
2019-03-04T12:22:55.747Z,84.72
2019-03-04T12:25:24.035Z,79.25
2019-03-04T12:27:52.292Z,97.10
2019-03-04T12:30:25.254Z,80.85
2019-03-04T12:32:54.163Z,113.22
2019-03-04T12:35:22.504Z,50.38
2019-03-04T12:37:51.219Z,29.15
2019-03-04T12:40:21.022Z,47.93
2019-03-04T12:42:49.315Z,53.40
2019-03-04T12:45:20.450Z,56.68
2019-03-04T12:47:48.697Z,44.53
2019-03-04T12:50:25.154Z,50.00
2019-03-04T12:52:53.894Z,34.30
2019-03-04T12:55:22.210Z,47.53
2019-03-04T12:57:50.478Z,61.33
2019-03-04T13:00:24.766Z,71.53
2019-03-04T13:02:57.634Z,52.50
2019-03-04T13:05:23.400Z,27.27
2019-03-04T13:07:51.683Z,27.95
2019-03-04T13:10:20.452Z,30.92
2019-03-04T13:12:48.737Z,36.93
2019-03-04T13:15:25.677Z,45.12
2019-03-04T13:17:53.947Z,41.08
2019-03-04T13:20:23.767Z,49.58
2019-03-04T13:22:52.027Z,32.15
2019-03-04T13:25:21.486Z,58.80
2019-03-04T13:27:49.759Z,29.87
2019-03-04T13:30:26.167Z,38.05
2019-03-04T13:39:45.381Z,42.20
2019-03-04T13:42:13.641Z,26.33
2019-03-04T13:44:41.932Z,51.42
2019-03-04T13:47:10.224Z,56.05
2019-03-04T13:49:38.488Z,37.25
2019-03-04T13:52:07.791Z,34.90
2019-03-04T13:54:36.050Z,36.15
2019-03-04T13:57:04.341Z,24.15
2019-03-04T13:59:32.595Z,18.77
2019-03-04T14:02:00.876Z,18.95
2019-03-04T14:04:29.152Z,29.30
2019-03-04T14:06:57.423Z,24.57
2019-03-04T14:09:27.416Z,35.75
2019-03-04T14:11:55.688Z,27.17
2019-03-04T14:14:25.593Z,27.42
2019-03-04T14:16:53.890Z,30.75
2019-03-04T14:19:24.180Z,49.00
2019-03-04T14:21:52.170Z,51.05
2019-03-04T14:24:20.428Z,52.60
2019-03-04T14:26:48.725Z,57.73
2019-03-04T14:29:16.984Z,74.87
2019-03-04T14:31:45.249Z,55.88
2019-03-04T14:34:14.750Z,24.87
2019-03-04T14:36:42.966Z,21.70
2019-03-04T14:39:13.529Z,32.98
2019-03-04T14:41:41.819Z,34.53
2019-03-04T14:44:10.085Z,20.52
2019-03-04T14:46:38.375Z,24.55
2019-03-04T14:49:06.641Z,48.68
2019-03-04T14:51:34.929Z,38.50
2019-03-04T14:54:03.195Z,29.87
2019-03-04T14:56:31.489Z,51.75
2019-03-04T14:59:10.220Z,149.40
2019-03-04T15:01:31.407Z,192.90
2019-03-04T15:04:02.590Z,236.07
2019-03-04T15:06:32.386Z,207.20
2019-03-04T15:09:00.657Z,231.70
2019-03-04T15:11:28.928Z,212.72
2019-03-04T15:13:57.226Z,457.58
2019-03-04T15:16:25.498Z,317.10
2019-03-04T15:18:53.784Z,206.75
2019-03-04T15:21:22.085Z,319.87
2019-03-04T15:23:50.384Z,107.55
2019-03-04T15:26:18.650Z,95.65
2019-03-04T15:28:47.080Z,70.62
2019-03-04T15:31:15.405Z,57.10
2019-03-04T15:33:43.666Z,55.28
2019-03-04T15:36:11.959Z,31.77
2019-03-04T15:38:40.238Z,48.28
2019-03-04T15:41:08.498Z,66.80
2019-03-04T15:43:36.787Z,42.27
2019-03-04T15:46:05.047Z,26.07
2019-03-04T15:48:35.438Z,30.08
2019-03-04T15:51:03.703Z,34.03
2019-03-04T15:53:33.233Z,45.12
2019-03-04T15:56:02.796Z,37.30
2019-03-04T15:58:31.012Z,67.75
2019-03-04T16:00:59.303Z,57.85
2019-03-04T16:03:27.568Z,68.67
2019-03-04T16:05:55.876Z,70.17
2019-03-04T16:08:24.113Z,65.70
2019-03-04T16:10:52.418Z,71.97
2019-03-04T16:13:20.677Z,79.22
2019-03-04T16:15:48.955Z,93.17
2019-03-04T16:18:17.225Z,77.55
2019-03-04T16:20:45.526Z,93.70
2019-03-04T16:23:14.937Z,70.22
2019-03-04T16:25:43.249Z,164.95
2019-03-04T16:28:17.268Z,86.97
2019-03-04T16:30:47.333Z,69.03
2019-03-04T16:33:15.604Z,105.60
2019-03-04T16:35:43.893Z,65.30
2019-03-04T16:38:13.020Z,142.10
2019-03-04T16:40:41.326Z,236.20
2019-03-04T16:43:09.632Z,211.87
2019-03-04T16:45:38.967Z,241.38
2019-03-04T16:48:07.266Z,206.50
2019-03-04T16:50:42.840Z,179.07
2019-03-04T16:53:26.653Z,242.32
2019-03-04T16:55:54.930Z,178.35
2019-03-04T16:58:23.217Z,217.70
2019-03-04T17:00:51.795Z,292.77
2019-03-04T17:03:20.062Z,195.80
2019-03-04T17:05:48.338Z,182.97
2019-03-04T17:08:16.639Z,141.88
2019-03-04T17:10:45.095Z,202.50
2019-03-04T17:13:13.362Z,304.35
2019-03-04T17:15:41.657Z,164.47
2019-03-04T17:18:09.918Z,156.37
2019-03-04T17:20:39.119Z,130.82
2019-03-04T17:23:07.486Z,140.65
2019-03-04T17:25:37.675Z,151.40
2019-03-04T17:28:05.969Z,163.00
2019-03-04T17:30:34.262Z,150.12
2019-03-04T17:33:02.535Z,207.40
2019-03-04T17:35:30.831Z,157.37
2019-03-04T17:37:59.105Z,140.88
2019-03-04T17:40:33.001Z,126.30
2019-03-04T17:43:01.293Z,83.05
2019-03-04T17:45:29.565Z,71.70
2019-03-04T17:47:58.908Z,41.18
2019-03-04T17:50:37.832Z,39.83
2019-03-04T17:53:08.444Z,24.27
2019-03-04T17:55:36.724Z,26.25
2019-03-04T17:58:04.980Z,33.10
2019-03-04T18:00:35.599Z,26.87
2019-03-04T18:03:03.854Z,32.67
2019-03-04T18:05:32.129Z,25.95
2019-03-04T18:08:00.407Z,23.70
2019-03-04T18:10:28.692Z,34.00
2019-03-04T18:12:59.218Z,19.55
2019-03-04T18:15:33.249Z,24.25
2019-03-04T18:18:01.505Z,29.75
2019-03-04T18:20:34.381Z,34.75
2019-03-04T18:22:59.764Z,44.75
2019-03-04T18:25:34.378Z,129.63
2019-03-04T18:28:05.928Z,47.05
2019-03-04T18:31:08.806Z,51.33
2019-03-04T18:33:40.340Z,34.53
2019-03-04T18:36:40.499Z,42.13
2019-03-04T18:39:29.940Z,42.43
2019-03-04T18:42:25.294Z,26.77
2019-03-04T18:45:08.722Z,32.20
2019-03-04T18:47:56.234Z,45.15
2019-03-04T18:50:25.449Z,42.80
2019-03-04T18:52:55.182Z,25.68
2019-03-04T18:55:23.471Z,29.67
2019-03-04T18:57:51.736Z,29.92
2019-03-04T19:00:26.092Z,24.75
2019-03-04T19:02:54.356Z,31.73
2019-03-04T19:08:13.399Z,40.28
2019-03-04T19:10:41.665Z,29.90
2019-03-04T19:13:09.959Z,21.50
2019-03-04T19:15:38.374Z,36.17
2019-03-04T19:18:06.632Z,58.45
2019-03-04T19:20:34.932Z,42.03
2019-03-04T19:23:03.187Z,37.42
2019-03-04T19:25:31.479Z,32.00
2019-03-04T19:28:02.181Z,29.05
2019-03-04T19:30:30.541Z,21.52
2019-03-04T19:32:58.807Z,31.87
2019-03-04T19:35:27.097Z,28.23
2019-03-04T19:37:55.396Z,40.85
2019-03-04T19:40:23.649Z,44.65
2019-03-04T19:42:51.946Z,36.90
2019-03-04T19:45:20.262Z,95.42
2019-03-04T19:47:48.555Z,52.95
2019-03-04T19:50:16.818Z,69.90
2019-03-04T19:52:45.177Z,41.95
2019-03-04T19:55:18.868Z,36.75
2019-03-04T19:57:47.082Z,44.67
2019-03-04T20:00:25.023Z,69.82
2019-03-04T20:02:53.473Z,44.42
2019-03-04T20:05:23.125Z,43.45
2019-03-04T20:07:51.373Z,30.90
2019-03-04T20:10:19.646Z,35.90
2019-03-04T20:12:47.972Z,56.40
2019-03-04T20:15:36.358Z,61.50
2019-03-04T20:18:06.302Z,35.40
2019-03-04T20:20:34.554Z,45.08
2019-03-04T20:23:02.839Z,35.23
2019-03-04T20:25:31.103Z,37.90
2019-03-04T20:27:59.369Z,25.35
2019-03-04T20:30:27.640Z,60.65
2019-03-04T20:32:58.288Z,46.95
2019-03-04T20:35:25.938Z,52.43
2019-03-04T20:38:15.544Z,28.55
2019-03-04T20:40:43.813Z,30.97
2019-03-04T20:43:12.105Z,58.95
2019-03-04T20:45:40.362Z,59.90
2019-03-04T20:48:08.634Z,38.25
2019-03-04T20:50:36.908Z,54.95
2019-03-04T20:53:05.201Z,48.60
2019-03-04T20:55:33.461Z,63.52
2019-03-04T20:58:03.485Z,48.52
2019-03-04T21:00:36.181Z,39.45
2019-03-04T21:03:05.821Z,96.28
2019-03-04T21:05:34.389Z,96.35
2019-03-04T21:08:02.909Z,56.45
2019-03-04T21:10:31.185Z,68.62
2019-03-04T21:13:07.159Z,48.63
2019-03-04T21:15:35.436Z,56.18
2019-03-04T21:18:05.979Z,81.63
2019-03-04T21:20:33.685Z,62.93
2019-03-04T21:23:01.971Z,37.00
2019-03-04T21:25:41.588Z,53.28
2019-03-04T21:28:16.130Z,40.60
2019-03-04T21:31:06.998Z,44.75
2019-03-04T21:33:56.708Z,48.80
2019-03-04T21:36:44.827Z,48.55
2019-03-04T21:39:19.294Z,51.55
2019-03-04T21:41:53.636Z,42.58
2019-03-04T21:44:41.591Z,52.55
2019-03-04T21:47:25.180Z,56.53
2019-03-04T21:49:53.565Z,52.10
2019-03-04T21:52:42.849Z,53.30
2019-03-04T21:55:17.178Z,52.62
2019-03-04T21:57:48.204Z,79.00
2019-03-04T22:00:23.792Z,32.63
2019-03-04T22:02:58.587Z,38.13
2019-03-04T22:05:26.844Z,39.05
2019-03-04T22:07:55.100Z,31.23
2019-03-04T22:10:23.398Z,37.48
2019-03-04T22:12:51.645Z,30.92
2019-03-04T22:15:19.939Z,32.90
2019-03-04T22:17:48.195Z,34.05
2019-03-04T22:20:16.516Z,35.20
2019-03-04T22:22:44.814Z,35.70
2019-03-04T22:25:14.226Z,40.75
2019-03-04T22:27:42.479Z,37.75
2019-03-04T22:30:18.376Z,51.58
2019-03-04T22:32:46.645Z,53.08
2019-03-04T22:35:17.162Z,52.83
2019-03-04T22:37:45.532Z,58.25
2019-03-04T22:40:22.457Z,57.88
2019-03-04T22:42:50.808Z,55.65
2019-03-04T22:45:20.483Z,49.93
2019-03-04T22:47:50.274Z,80.10
2019-03-04T22:50:20.499Z,58.58
2019-03-04T22:52:49.339Z,101.50
2019-03-04T22:55:29.244Z,119.30
2019-03-04T22:57:57.516Z,42.35
2019-03-04T23:00:54.744Z,38.50
2019-03-04T23:03:24.484Z,39.65
2019-03-04T23:05:55.587Z,48.75
2019-03-04T23:08:23.841Z,38.20
2019-03-04T23:10:52.111Z,37.88
2019-03-04T23:13:41.074Z,48.65
2019-03-04T23:16:15.651Z,48.87
2019-03-04T23:18:46.986Z,33.67
2019-03-04T23:21:15.238Z,27.85
2019-03-04T23:23:43.532Z,35.13
2019-03-04T23:26:11.784Z,43.40
2019-03-04T23:28:40.041Z,46.00
2019-03-04T23:31:08.321Z,33.67
2019-03-04T23:33:36.584Z,29.37
2019-03-04T23:36:04.866Z,46.45
2019-03-04T23:38:33.148Z,36.03
2019-03-04T23:41:01.429Z,27.82
2019-03-04T23:43:29.674Z,19.80
2019-03-04T23:45:57.965Z,34.98
2019-03-04T23:48:26.225Z,34.92
2019-03-04T23:50:54.691Z,41.35
2019-03-04T23:53:22.936Z,22.35
2019-03-04T23:55:51.200Z,25.25
2019-03-04T23:58:19.482Z,14.33
